createdAt,value
2022-12-02T00:02:30.827Z,24.52
2022-12-02T00:05:02.331Z,27.40
2022-12-02T00:07:29.736Z,25.75
2022-12-02T00:09:57.080Z,23.77
2022-12-02T00:12:27.383Z,23.48
2022-12-02T00:14:58.118Z,24.00
2022-12-02T00:17:25.958Z,27.42
2022-12-02T00:19:53.575Z,27.27
2022-12-02T00:22:21.480Z,23.77
2022-12-02T00:24:49.429Z,25.60
2022-12-02T00:27:18.343Z,25.88
2022-12-02T00:29:45.651Z,23.17
2022-12-02T00:32:13.240Z,28.17
2022-12-02T00:34:40.557Z,28.27
2022-12-02T00:37:07.942Z,29.92
2022-12-02T00:39:35.520Z,26.40
2022-12-02T00:42:02.850Z,27.45
2022-12-02T00:44:48.939Z,24.37
2022-12-02T00:47:16.786Z,24.08
2022-12-02T00:49:44.123Z,27.55
2022-12-02T00:52:11.601Z,26.35
2022-12-02T00:54:39.800Z,24.00
2022-12-02T00:57:07.295Z,23.55
2022-12-02T00:59:34.694Z,26.12
2022-12-02T01:02:02.364Z,27.55
2022-12-02T01:04:29.845Z,23.38
2022-12-02T01:06:57.160Z,24.95
2022-12-02T01:09:24.773Z,27.27
2022-12-02T01:11:53.569Z,27.33
2022-12-02T01:14:20.901Z,24.67
2022-12-02T01:16:48.534Z,25.10
2022-12-02T01:19:16.396Z,30.55
2022-12-02T01:21:43.729Z,30.23
2022-12-02T01:24:11.317Z,27.42
2022-12-02T01:26:38.714Z,26.42
2022-12-02T01:29:07.895Z,24.98
2022-12-02T01:31:35.515Z,26.92
2022-12-02T01:34:02.998Z,26.45
2022-12-02T01:36:30.335Z,22.75
2022-12-02T01:38:57.944Z,26.25
2022-12-02T01:41:25.335Z,28.50
2022-12-02T01:43:52.817Z,28.30
2022-12-02T01:46:21.709Z,30.55
2022-12-02T01:48:49.875Z,33.42
2022-12-02T01:51:17.296Z,34.20
2022-12-02T01:53:46.814Z,32.33
2022-12-02T01:56:14.312Z,32.70
2022-12-02T01:58:41.678Z,31.85
2022-12-02T02:01:30.014Z,32.10
2022-12-02T02:03:57.973Z,31.48
2022-12-02T02:06:27.074Z,29.10
2022-12-02T02:08:55.536Z,30.88
2022-12-02T02:11:23.975Z,32.38
2022-12-02T02:13:55.861Z,32.83
2022-12-02T02:16:23.411Z,27.73
2022-12-02T02:18:50.783Z,26.90
2022-12-02T02:21:23.594Z,26.30
2022-12-02T02:23:51.388Z,30.67
2022-12-02T02:26:19.088Z,26.67
2022-12-02T02:28:47.642Z,26.55
2022-12-02T02:31:15.107Z,30.50
2022-12-02T02:33:43.641Z,32.53
2022-12-02T02:36:11.268Z,32.03
2022-12-02T02:38:39.103Z,30.88
2022-12-02T02:41:07.228Z,30.67
2022-12-02T02:43:35.395Z,32.45
2022-12-02T02:46:03.558Z,26.90
2022-12-02T02:48:31.803Z,27.90
2022-12-02T02:50:59.166Z,30.83
2022-12-02T02:53:27.105Z,27.50
2022-12-02T02:55:55.359Z,29.77
2022-12-02T02:58:24.811Z,28.87
2022-12-02T03:00:59.004Z,29.02
2022-12-02T03:03:30.935Z,30.35
2022-12-02T03:05:59.954Z,30.65
2022-12-02T03:08:29.386Z,30.12
2022-12-02T03:10:57.135Z,30.02
2022-12-02T03:13:24.830Z,28.55
2022-12-02T03:15:52.602Z,29.55
2022-12-02T03:18:20.065Z,25.73
2022-12-02T03:20:47.549Z,26.80
2022-12-02T03:23:15.766Z,27.17
2022-12-02T03:25:43.239Z,26.50
2022-12-02T03:28:12.129Z,25.37
2022-12-02T03:30:40.290Z,28.70
2022-12-02T03:33:08.037Z,24.67
2022-12-02T03:35:35.505Z,28.08
2022-12-02T03:38:03.156Z,25.17
2022-12-02T03:40:30.685Z,28.73
2022-12-02T03:42:58.188Z,26.67
2022-12-02T03:45:25.829Z,26.85
2022-12-02T03:47:53.185Z,23.87
2022-12-02T03:50:21.290Z,26.42
2022-12-02T03:52:49.271Z,30.00
2022-12-02T03:55:16.703Z,25.48
2022-12-02T03:57:44.051Z,25.67
2022-12-02T04:00:16.191Z,27.08
2022-12-02T04:02:44.158Z,26.70
2022-12-02T04:05:11.613Z,26.90
2022-12-02T04:07:39.011Z,26.25
2022-12-02T04:10:07.414Z,27.15
2022-12-02T04:12:34.731Z,23.27
2022-12-02T04:15:02.069Z,24.80
2022-12-02T04:17:29.661Z,23.52
2022-12-02T04:19:57.060Z,27.48
2022-12-02T04:22:24.364Z,25.15
2022-12-02T04:24:52.375Z,26.40
2022-12-02T04:27:19.867Z,24.63
2022-12-02T04:29:47.178Z,27.17
2022-12-02T04:32:14.764Z,25.65
2022-12-02T04:34:42.077Z,23.38
2022-12-02T04:37:09.382Z,28.27
2022-12-02T04:39:37.112Z,24.37
2022-12-02T04:42:04.452Z,26.02
2022-12-02T04:44:31.778Z,26.80
2022-12-02T04:46:59.402Z,23.25
2022-12-02T04:49:26.779Z,27.45
2022-12-02T04:51:54.082Z,24.42
2022-12-02T04:54:21.654Z,26.17
2022-12-02T04:56:48.985Z,26.65
2022-12-02T04:59:16.448Z,26.23
2022-12-02T05:01:44.027Z,27.10
2022-12-02T05:04:11.414Z,26.62
2022-12-02T05:06:38.768Z,26.42
2022-12-02T05:09:06.415Z,26.90
2022-12-02T05:11:36.504Z,27.30
2022-12-02T05:14:04.319Z,26.08
2022-12-02T05:16:31.936Z,26.60
2022-12-02T05:18:59.327Z,26.75
2022-12-02T05:21:26.655Z,30.40
2022-12-02T05:23:54.235Z,27.83
2022-12-02T05:26:21.532Z,26.00
2022-12-02T05:28:48.862Z,32.30
2022-12-02T05:31:17.477Z,24.27
2022-12-02T05:33:44.827Z,28.38
2022-12-02T05:36:12.952Z,26.62
2022-12-02T05:38:40.647Z,27.20
2022-12-02T05:41:07.977Z,29.65
2022-12-02T05:43:39.344Z,26.50
2022-12-02T05:46:17.282Z,27.48
2022-12-02T05:48:45.788Z,32.72
2022-12-02T05:51:18.052Z,29.55
2022-12-02T05:53:47.009Z,27.80
2022-12-02T05:56:23.731Z,29.15
2022-12-02T05:58:51.378Z,25.48
2022-12-02T06:01:39.517Z,30.75
2022-12-02T06:04:22.849Z,27.83
2022-12-02T06:06:52.371Z,29.20
2022-12-02T06:09:26.197Z,31.48
2022-12-02T06:11:53.581Z,26.75
2022-12-02T06:14:31.577Z,26.12
2022-12-02T06:17:01.135Z,27.87
2022-12-02T06:19:43.025Z,26.48
2022-12-02T06:22:14.565Z,28.15
2022-12-02T06:24:42.157Z,28.70
2022-12-02T06:27:12.964Z,24.48
2022-12-02T06:29:47.006Z,29.48
2022-12-02T06:32:21.501Z,32.80
2022-12-02T06:34:51.123Z,29.85
2022-12-02T06:37:24.079Z,33.30
2022-12-02T06:40:27.026Z,29.73
2022-12-02T06:42:43.941Z,27.50
2022-12-02T06:45:14.206Z,27.45
2022-12-02T06:47:55.531Z,28.38
2022-12-02T06:50:41.809Z,30.17
2022-12-02T06:53:26.629Z,26.58
2022-12-02T06:55:58.810Z,28.65
2022-12-02T06:58:46.608Z,35.25
2022-12-02T07:01:23.328Z,24.35
2022-12-02T07:04:04.343Z,30.12
2022-12-02T07:06:34.250Z,30.23
2022-12-02T07:09:12.132Z,28.33
2022-12-02T07:11:53.203Z,28.02
2022-12-02T07:14:26.406Z,29.45
2022-12-02T07:16:56.100Z,27.00
2022-12-02T07:19:25.647Z,30.88
2022-12-02T07:21:53.853Z,29.67
2022-12-02T07:24:21.945Z,29.50
2022-12-02T07:26:50.114Z,24.50
2022-12-02T07:29:27.632Z,30.05
2022-12-02T07:31:55.372Z,29.70
2022-12-02T07:34:22.801Z,32.80
2022-12-02T07:36:50.217Z,29.70
2022-12-02T07:39:17.824Z,27.67
2022-12-02T07:41:45.398Z,32.50
2022-12-02T07:44:12.699Z,30.40
2022-12-02T07:46:40.272Z,27.70
2022-12-02T07:49:07.941Z,27.20
2022-12-02T07:51:35.306Z,31.45
2022-12-02T07:54:03.750Z,29.35
2022-12-02T07:56:31.289Z,28.33
2022-12-02T07:59:14.396Z,25.40
2022-12-02T08:01:42.284Z,25.88
2022-12-02T08:04:10.126Z,27.05
2022-12-02T08:06:39.915Z,29.33
2022-12-02T08:09:08.970Z,28.40
2022-12-02T08:11:37.061Z,34.70
2022-12-02T08:14:04.537Z,29.45
2022-12-02T08:16:31.944Z,27.85
2022-12-02T08:19:01.189Z,29.23
2022-12-02T08:21:30.633Z,27.27
2022-12-02T08:23:58.136Z,27.27
2022-12-02T08:26:26.007Z,29.42
2022-12-02T08:28:54.378Z,24.15
2022-12-02T08:31:22.698Z,25.42
2022-12-02T08:33:51.197Z,29.35
2022-12-02T08:36:18.767Z,27.73
2022-12-02T08:38:46.350Z,29.70
2022-12-02T08:41:14.391Z,28.70
2022-12-02T08:43:42.568Z,28.10
2022-12-02T08:46:11.050Z,31.52
2022-12-02T08:48:38.867Z,25.62
2022-12-02T08:51:06.775Z,28.58
2022-12-02T08:53:34.268Z,28.33
2022-12-02T08:56:02.337Z,24.35
2022-12-02T08:58:29.659Z,25.10
2022-12-02T09:00:56.980Z,28.25
2022-12-02T09:03:24.722Z,29.12
2022-12-02T09:05:52.031Z,26.83
2022-12-02T09:08:19.356Z,27.60
2022-12-02T09:10:47.020Z,26.92
2022-12-02T09:13:14.374Z,32.10
2022-12-02T09:15:41.706Z,28.83
2022-12-02T09:18:14.118Z,27.15
2022-12-02T09:20:42.377Z,27.05
2022-12-02T09:23:10.203Z,29.15
2022-12-02T09:25:37.570Z,36.38
2022-12-02T09:28:06.571Z,27.87
2022-12-02T09:30:34.178Z,29.05
2022-12-02T09:33:01.477Z,26.17
2022-12-02T09:35:28.782Z,26.98
2022-12-02T09:37:56.543Z,27.83
2022-12-02T09:40:23.950Z,24.70
2022-12-02T09:42:51.556Z,29.67
2022-12-02T09:45:19.273Z,26.40
2022-12-02T09:47:46.686Z,26.00
2022-12-02T09:50:15.246Z,30.55
2022-12-02T09:52:43.893Z,30.60
2022-12-02T09:55:13.059Z,29.25
2022-12-02T09:57:40.862Z,27.13
2022-12-02T10:00:20.937Z,29.77
2022-12-02T10:02:50.884Z,29.85
2022-12-02T10:05:20.479Z,28.48
2022-12-02T10:07:49.150Z,30.60
2022-12-02T10:10:20.481Z,29.20
2022-12-02T10:12:48.068Z,27.77
2022-12-02T10:15:19.645Z,26.87
2022-12-02T10:17:47.518Z,27.65
2022-12-02T10:20:26.601Z,29.45
2022-12-02T10:23:14.843Z,29.87
2022-12-02T10:26:06.859Z,28.25
2022-12-02T10:28:36.253Z,30.70
2022-12-02T10:31:14.961Z,33.60
2022-12-02T10:33:52.528Z,33.65
2022-12-02T10:36:41.219Z,31.90
2022-12-02T10:39:20.964Z,28.95
2022-12-02T10:41:49.660Z,29.10
2022-12-02T10:44:21.582Z,28.12
2022-12-02T10:46:49.025Z,29.67
2022-12-02T10:49:32.431Z,30.92
2022-12-02T10:52:03.153Z,29.83
2022-12-02T10:54:35.512Z,29.48
2022-12-02T10:57:13.713Z,30.52
2022-12-02T10:59:41.306Z,24.87
2022-12-02T11:02:39.125Z,29.25
2022-12-02T11:05:24.428Z,31.95
2022-12-02T11:08:00.579Z,29.63
2022-12-02T11:10:39.684Z,34.10
2022-12-02T11:13:13.118Z,29.63
2022-12-02T11:15:43.370Z,32.22
2022-12-02T11:18:23.606Z,32.17
2022-12-02T11:21:12.828Z,34.05
2022-12-02T11:23:42.058Z,30.12
2022-12-02T11:26:13.200Z,31.98
2022-12-02T11:29:04.599Z,31.77
2022-12-02T11:31:32.696Z,33.67
2022-12-02T11:34:05.643Z,33.42
2022-12-02T11:36:35.584Z,35.00
2022-12-02T11:39:06.879Z,36.63
2022-12-02T11:41:49.414Z,31.30
2022-12-02T11:44:22.407Z,32.42
2022-12-02T11:46:51.534Z,32.45
2022-12-02T11:49:32.769Z,31.48
2022-12-02T11:52:08.069Z,33.97
2022-12-02T11:54:57.566Z,30.52
2022-12-02T11:57:30.856Z,28.17
2022-12-02T11:59:58.695Z,32.42
2022-12-02T12:02:26.350Z,30.77
2022-12-02T12:05:07.867Z,34.10
2022-12-02T12:07:51.281Z,33.03
2022-12-02T12:10:33.933Z,29.35
2022-12-02T12:13:24.798Z,31.83
2022-12-02T12:16:00.886Z,32.47
2022-12-02T12:18:46.220Z,34.85
2022-12-02T12:21:36.531Z,33.60
2022-12-02T12:24:23.484Z,32.05
2022-12-02T12:27:01.507Z,34.50
2022-12-02T12:29:34.302Z,38.30
2022-12-02T12:32:02.081Z,37.15
2022-12-02T12:34:30.002Z,33.35
2022-12-02T12:36:57.706Z,32.15
2022-12-02T12:39:25.363Z,34.90
2022-12-02T12:42:01.413Z,31.98
2022-12-02T12:44:31.892Z,35.30
2022-12-02T12:47:04.850Z,34.70
2022-12-02T12:49:34.875Z,30.40
2022-12-02T12:52:02.569Z,34.67
2022-12-02T12:54:30.445Z,34.38
2022-12-02T12:56:58.249Z,32.75
2022-12-02T12:59:25.614Z,33.90
2022-12-02T13:01:53.047Z,38.08
2022-12-02T13:04:20.774Z,37.55
2022-12-02T13:06:48.170Z,32.00
2022-12-02T13:09:16.268Z,33.50
2022-12-02T13:11:43.927Z,37.95
2022-12-02T13:14:11.229Z,34.05
2022-12-02T13:16:38.643Z,35.03
2022-12-02T13:19:06.459Z,35.05
2022-12-02T13:21:33.875Z,32.08
2022-12-02T13:24:03.229Z,31.08
2022-12-02T13:26:30.836Z,33.38
2022-12-02T13:28:58.160Z,33.30
2022-12-02T13:31:25.558Z,34.60
2022-12-02T13:33:53.198Z,34.22
2022-12-02T13:36:20.510Z,35.92
2022-12-02T13:38:47.871Z,37.80
2022-12-02T13:41:15.451Z,33.40
2022-12-02T13:43:42.767Z,37.53
2022-12-02T13:46:10.209Z,35.95
2022-12-02T13:48:37.901Z,36.42
2022-12-02T13:51:05.285Z,37.40
2022-12-02T13:53:32.602Z,36.63
2022-12-02T13:56:00.211Z,40.42
2022-12-02T13:58:28.267Z,34.45
2022-12-02T14:00:55.666Z,36.90
2022-12-02T14:03:23.287Z,36.53
2022-12-02T14:05:50.639Z,36.88
2022-12-02T14:08:18.009Z,37.25
2022-12-02T14:10:45.671Z,36.05
2022-12-02T14:13:18.178Z,37.55
2022-12-02T14:15:47.386Z,41.03
2022-12-02T14:18:23.887Z,38.97
2022-12-02T14:20:51.475Z,39.05
2022-12-02T14:23:18.795Z,35.17
2022-12-02T14:25:46.136Z,36.38
2022-12-02T14:28:13.772Z,39.08
2022-12-02T14:30:41.083Z,34.97
2022-12-02T14:33:08.409Z,36.75
2022-12-02T14:35:36.012Z,39.70
2022-12-02T14:38:03.389Z,39.80
2022-12-02T14:40:31.837Z,40.00
2022-12-02T14:42:59.410Z,36.83
2022-12-02T14:45:27.072Z,36.63
2022-12-02T14:47:54.418Z,36.95
2022-12-02T14:50:27.384Z,35.15
2022-12-02T14:52:54.758Z,36.20
2022-12-02T14:55:23.041Z,40.17
2022-12-02T14:57:50.641Z,36.92
2022-12-02T15:00:19.123Z,32.55
2022-12-02T15:02:47.311Z,32.25
2022-12-02T15:05:20.007Z,34.38
2022-12-02T15:07:47.626Z,32.85
2022-12-02T15:10:15.851Z,33.08
2022-12-02T15:12:43.263Z,35.00
2022-12-02T15:15:36.530Z,36.97
2022-12-02T15:17:58.960Z,34.00
2022-12-02T15:20:26.734Z,33.38
2022-12-02T15:22:54.487Z,35.72
2022-12-02T15:25:21.919Z,37.72
2022-12-02T15:27:49.559Z,37.25
2022-12-02T15:30:17.109Z,35.33
2022-12-02T15:32:45.751Z,33.83
2022-12-02T15:35:13.427Z,34.33
2022-12-02T15:37:41.031Z,39.67
2022-12-02T15:40:09.987Z,36.97
2022-12-02T15:42:37.624Z,38.72
2022-12-02T15:45:05.948Z,37.35
2022-12-02T15:47:33.344Z,36.75
2022-12-02T15:50:00.951Z,39.30
2022-12-02T15:52:28.586Z,34.33
2022-12-02T15:54:56.407Z,37.85
2022-12-02T15:57:24.287Z,34.47
2022-12-02T15:59:51.714Z,34.50
2022-12-02T16:02:19.180Z,35.63
2022-12-02T16:04:46.808Z,38.38
2022-12-02T16:07:15.543Z,34.13
2022-12-02T16:09:43.411Z,35.00
2022-12-02T16:12:11.212Z,34.17
2022-12-02T16:14:38.549Z,36.58
2022-12-02T16:17:06.063Z,33.90
2022-12-02T16:19:34.087Z,34.42
2022-12-02T16:22:02.208Z,35.28
2022-12-02T16:24:29.798Z,44.13
2022-12-02T16:26:57.493Z,38.78
2022-12-02T16:29:24.843Z,35.63
2022-12-02T16:31:52.232Z,34.33
2022-12-02T16:34:19.866Z,40.05
2022-12-02T16:36:47.362Z,33.55
2022-12-02T16:39:15.028Z,33.22
2022-12-02T16:41:42.736Z,38.72
2022-12-02T16:44:10.071Z,37.33
2022-12-02T16:46:37.866Z,35.30
2022-12-02T16:49:06.747Z,35.40
2022-12-02T16:51:34.059Z,37.95
2022-12-02T16:54:01.708Z,42.47
2022-12-02T16:56:29.471Z,38.17
2022-12-02T16:58:56.859Z,35.22
2022-12-02T17:01:24.246Z,36.42
2022-12-02T17:03:52.217Z,36.85
2022-12-02T17:06:19.682Z,39.33
2022-12-02T17:08:51.060Z,35.45
2022-12-02T17:11:21.793Z,37.38
2022-12-02T17:13:49.540Z,30.88
2022-12-02T17:16:17.481Z,40.78
2022-12-02T17:18:45.835Z,36.85
2022-12-02T17:21:13.260Z,37.40
2022-12-02T17:23:40.572Z,34.88
2022-12-02T17:26:08.489Z,35.50
2022-12-02T17:28:36.320Z,34.78
2022-12-02T17:31:03.833Z,31.00
2022-12-02T17:33:31.455Z,29.23
2022-12-02T17:35:58.825Z,32.13
2022-12-02T17:38:26.299Z,31.50
2022-12-02T17:41:10.340Z,31.25
2022-12-02T17:43:40.181Z,32.50
2022-12-02T17:46:08.315Z,30.75
2022-12-02T17:48:36.236Z,33.33
2022-12-02T17:51:03.745Z,32.15
2022-12-02T17:53:31.302Z,31.55
2022-12-02T17:55:58.657Z,31.70
2022-12-02T17:58:26.839Z,30.37
2022-12-02T18:00:54.581Z,35.83
2022-12-02T18:03:22.660Z,34.40
2022-12-02T18:05:50.536Z,32.22
2022-12-02T18:08:20.180Z,33.97
2022-12-02T18:10:51.240Z,34.92
2022-12-02T18:13:19.097Z,34.72
2022-12-02T18:15:48.053Z,31.27
2022-12-02T18:18:16.134Z,34.55
2022-12-02T18:20:43.758Z,32.42
2022-12-02T18:23:11.747Z,35.60
2022-12-02T18:25:39.698Z,35.80
2022-12-02T18:28:07.533Z,32.55
2022-12-02T18:30:35.058Z,34.03
2022-12-02T18:33:02.936Z,35.45
2022-12-02T18:35:30.449Z,39.03
2022-12-02T18:38:01.438Z,38.25
2022-12-02T18:40:29.521Z,33.58
2022-12-02T18:42:57.115Z,35.13
2022-12-02T18:45:24.895Z,31.25
2022-12-02T18:47:53.013Z,32.80
2022-12-02T18:50:20.782Z,34.38
2022-12-02T18:52:49.701Z,33.13
2022-12-02T18:55:17.753Z,33.72
2022-12-02T18:57:45.542Z,32.10
2022-12-02T19:00:14.997Z,33.38
2022-12-02T19:02:43.570Z,34.65
2022-12-02T19:05:11.712Z,37.95
2022-12-02T19:07:39.642Z,31.37
2022-12-02T19:10:07.885Z,35.92
2022-12-02T19:12:35.741Z,35.40
2022-12-02T19:15:03.885Z,33.20
2022-12-02T19:17:31.978Z,36.38
2022-12-02T19:19:59.877Z,32.75
2022-12-02T19:22:27.704Z,36.63
2022-12-02T19:24:56.665Z,37.38
2022-12-02T19:30:13.372Z,34.78
2022-12-02T19:32:40.829Z,40.63
2022-12-02T19:35:08.888Z,38.72
2022-12-02T19:37:37.066Z,35.38
2022-12-02T19:40:05.206Z,34.33
2022-12-02T19:42:33.015Z,33.33
2022-12-02T19:45:01.296Z,36.05
2022-12-02T19:47:29.354Z,33.95
2022-12-02T19:49:57.237Z,33.88
2022-12-02T19:52:25.328Z,37.03
2022-12-02T19:54:53.642Z,36.35
2022-12-02T19:57:21.726Z,33.60
2022-12-02T19:59:49.842Z,42.65
2022-12-02T20:02:18.062Z,42.05
2022-12-02T20:04:45.971Z,47.03
2022-12-02T20:07:14.760Z,46.47
2022-12-02T20:09:42.940Z,42.28
2022-12-02T20:12:10.957Z,37.10
2022-12-02T20:14:38.844Z,36.28
2022-12-02T20:17:06.830Z,34.78
2022-12-02T20:19:34.486Z,37.30
2022-12-02T20:22:02.275Z,45.55
2022-12-02T20:24:30.185Z,35.85
2022-12-02T20:27:00.542Z,36.33
2022-12-02T20:29:28.441Z,40.90
2022-12-02T20:31:56.404Z,39.97
2022-12-02T20:34:27.673Z,42.28
2022-12-02T20:36:59.245Z,38.38
2022-12-02T20:39:27.355Z,38.72
2022-12-02T20:41:55.149Z,41.85
2022-12-02T20:44:23.879Z,40.05
2022-12-02T20:46:52.240Z,38.05
2022-12-02T20:49:20.549Z,38.05
2022-12-02T20:51:48.330Z,36.28
2022-12-02T20:54:16.122Z,35.03
2022-12-02T20:56:43.850Z,39.85
2022-12-02T20:59:11.637Z,36.33
2022-12-02T21:01:39.956Z,38.35
2022-12-02T21:04:08.271Z,35.40
2022-12-02T21:06:36.107Z,35.63
2022-12-02T21:09:06.457Z,37.58
2022-12-02T21:11:34.313Z,36.17
2022-12-02T21:14:02.306Z,34.13
2022-12-02T21:16:30.462Z,35.78
2022-12-02T21:18:57.964Z,35.40
2022-12-02T21:21:25.717Z,34.63
2022-12-02T21:23:55.287Z,33.08
2022-12-02T21:26:25.145Z,35.95
2022-12-02T21:28:53.002Z,39.85
2022-12-02T21:31:20.414Z,36.03
2022-12-02T21:33:48.184Z,35.55
2022-12-02T21:36:15.785Z,39.08
2022-12-02T21:38:43.105Z,42.58
2022-12-02T21:41:10.469Z,38.15
2022-12-02T21:43:38.066Z,34.83
2022-12-02T21:46:05.611Z,38.42
2022-12-02T21:48:33.025Z,38.30
2022-12-02T21:51:00.836Z,37.92
2022-12-02T21:53:28.408Z,43.17
2022-12-02T21:55:55.746Z,40.33
2022-12-02T21:58:25.401Z,42.22
2022-12-02T22:01:12.749Z,37.08
2022-12-02T22:03:40.494Z,38.00
2022-12-02T22:06:07.838Z,42.95
2022-12-02T22:08:35.170Z,38.60
2022-12-02T22:11:02.782Z,38.60
2022-12-02T22:13:30.089Z,37.75
2022-12-02T22:15:57.494Z,38.55
2022-12-02T22:18:26.480Z,37.20
2022-12-02T22:20:53.797Z,40.30
2022-12-02T22:23:21.123Z,38.67
2022-12-02T22:25:48.707Z,38.63
2022-12-02T22:28:16.024Z,43.70
2022-12-02T22:30:43.354Z,38.10
2022-12-02T22:33:11.247Z,43.35
2022-12-02T22:35:38.863Z,41.10
2022-12-02T22:38:06.176Z,44.90
2022-12-02T22:40:33.761Z,41.47
2022-12-02T22:43:01.101Z,46.53
2022-12-02T22:45:28.477Z,44.58
2022-12-02T22:47:56.121Z,38.47
2022-12-02T22:50:23.437Z,42.22
2022-12-02T22:52:51.101Z,42.83
2022-12-02T22:55:18.703Z,40.78
2022-12-02T22:57:46.380Z,38.38
2022-12-02T23:00:15.909Z,36.25
2022-12-02T23:02:43.778Z,38.45
2022-12-02T23:05:11.210Z,35.67
2022-12-02T23:07:38.740Z,42.30
2022-12-02T23:10:07.111Z,37.72
2022-12-02T23:12:34.461Z,43.97
2022-12-02T23:15:28.223Z,38.05
2022-12-02T23:17:49.533Z,38.00
2022-12-02T23:20:16.909Z,42.30
2022-12-02T23:22:44.192Z,43.15
2022-12-02T23:25:12.267Z,36.13
2022-12-02T23:27:39.571Z,35.33
2022-12-02T23:30:07.458Z,44.10
2022-12-02T23:32:35.130Z,36.65
2022-12-02T23:35:02.443Z,37.50
2022-12-02T23:37:30.258Z,37.20
2022-12-02T23:39:57.878Z,39.85
2022-12-02T23:42:25.221Z,35.00
2022-12-02T23:44:52.768Z,37.50
2022-12-02T23:47:20.841Z,36.97
2022-12-02T23:49:48.158Z,40.12
2022-12-02T23:52:15.477Z,43.15
2022-12-02T23:54:43.254Z,40.33
2022-12-02T23:57:10.589Z,36.65
2022-12-02T23:59:37.902Z,40.53
